createdAt,value
2023-04-18T00:01:19.112Z,10.17
2023-04-18T00:03:45.859Z,11.40
2023-04-18T00:06:13.802Z,9.73
2023-04-18T00:08:40.441Z,9.47
2023-04-18T00:11:07.032Z,9.73
2023-04-18T00:13:33.525Z,10.03
2023-04-18T00:16:00.029Z,9.70
2023-04-18T00:18:27.153Z,9.67
2023-04-18T00:20:54.289Z,11.57
2023-04-18T00:23:21.594Z,10.20
2023-04-18T00:25:48.804Z,10.87
2023-04-18T00:28:15.314Z,9.40
2023-04-18T00:30:41.924Z,10.83
2023-04-18T00:33:08.952Z,9.80
2023-04-18T00:35:35.540Z,13.07
2023-04-18T00:38:01.994Z,9.83
2023-04-18T00:40:28.491Z,11.07
2023-04-18T00:42:55.673Z,11.93
2023-04-18T00:45:22.254Z,13.70
2023-04-18T00:47:48.726Z,10.77
2023-04-18T00:50:15.511Z,10.53
2023-04-18T00:52:42.214Z,11.00
2023-04-18T00:55:09.220Z,12.17
2023-04-18T00:57:36.153Z,10.90
2023-04-18T01:00:08.754Z,14.70
2023-04-18T01:02:35.749Z,13.03
2023-04-18T01:05:03.416Z,11.90
2023-04-18T01:07:35.573Z,13.53
2023-04-18T01:10:02.311Z,12.03
2023-04-18T01:12:28.919Z,12.93
2023-04-18T01:14:55.622Z,13.80
2023-04-18T01:17:23.320Z,12.90
2023-04-18T01:19:49.802Z,12.07
2023-04-18T01:22:17.262Z,13.50
2023-04-18T01:24:43.679Z,15.63
2023-04-18T01:27:13.890Z,13.07
2023-04-18T01:29:40.792Z,14.47
2023-04-18T01:32:07.555Z,13.30
2023-04-18T01:34:34.042Z,13.80
2023-04-18T01:37:00.557Z,13.87
2023-04-18T01:39:27.170Z,13.40
2023-04-18T01:41:53.709Z,14.23
2023-04-18T01:44:20.284Z,13.97
2023-04-18T01:46:46.825Z,12.83
2023-04-18T01:49:13.311Z,13.67
2023-04-18T01:51:39.981Z,13.93
2023-04-18T01:54:06.476Z,13.90
2023-04-18T01:56:33.020Z,15.90
2023-04-18T01:58:59.449Z,13.53
2023-04-18T02:01:26.088Z,13.13
2023-04-18T02:03:53.050Z,14.00
2023-04-18T02:06:19.734Z,14.03
2023-04-18T02:08:46.204Z,15.30
2023-04-18T02:11:12.746Z,12.83
2023-04-18T02:13:39.295Z,14.13
2023-04-18T02:16:06.272Z,14.20
2023-04-18T02:18:34.568Z,14.00
2023-04-18T02:21:01.077Z,12.87
2023-04-18T02:23:27.539Z,12.90
2023-04-18T02:25:54.580Z,12.97
2023-04-18T02:28:21.074Z,14.50
2023-04-18T02:30:47.619Z,12.97
2023-04-18T02:33:14.127Z,12.80
2023-04-18T02:35:40.745Z,14.13
2023-04-18T02:38:07.254Z,13.77
2023-04-18T02:40:33.797Z,12.33
2023-04-18T02:43:00.292Z,11.77
2023-04-18T02:45:26.794Z,13.20
2023-04-18T02:47:56.033Z,12.83
2023-04-18T02:50:23.954Z,12.67
2023-04-18T02:52:50.507Z,12.87
2023-04-18T02:55:17.142Z,12.37
2023-04-18T02:57:43.629Z,13.47
2023-04-18T03:00:10.672Z,12.73
2023-04-18T03:02:37.253Z,14.07
2023-04-18T03:05:04.181Z,12.87
2023-04-18T03:07:31.145Z,12.73
2023-04-18T03:09:57.864Z,13.10
2023-04-18T03:12:24.489Z,11.43
2023-04-18T03:14:50.988Z,13.50
2023-04-18T03:17:18.136Z,12.17
2023-04-18T03:19:45.446Z,11.17
2023-04-18T03:22:13.394Z,12.37
2023-04-18T03:24:39.923Z,11.60
2023-04-18T03:27:06.401Z,14.90
2023-04-18T03:29:33.370Z,12.97
2023-04-18T03:31:59.822Z,11.27
2023-04-18T03:34:27.085Z,11.83
2023-04-18T03:36:54.092Z,14.63
2023-04-18T03:39:20.601Z,11.80
2023-04-18T03:41:47.078Z,11.67
2023-04-18T03:44:13.673Z,12.27
2023-04-18T03:46:40.716Z,13.30
2023-04-18T03:49:07.209Z,11.73
2023-04-18T03:51:41.311Z,11.07
2023-04-18T03:54:07.840Z,14.77
2023-04-18T03:56:34.414Z,10.27
2023-04-18T03:59:00.926Z,9.83
2023-04-18T04:01:27.386Z,10.37
2023-04-18T04:03:53.961Z,9.83
2023-04-18T04:06:20.581Z,10.33
2023-04-18T04:08:47.020Z,11.40
2023-04-18T04:11:13.499Z,12.03
2023-04-18T04:13:39.940Z,9.47
2023-04-18T04:16:06.990Z,10.37
2023-04-18T04:18:33.592Z,13.57
2023-04-18T04:21:00.712Z,11.97
2023-04-18T04:23:27.467Z,9.17
2023-04-18T04:25:54.503Z,11.27
2023-04-18T04:28:23.901Z,9.77
2023-04-18T04:30:50.916Z,12.00
2023-04-18T04:33:21.015Z,9.33
2023-04-18T04:35:47.762Z,12.90
2023-04-18T04:38:15.355Z,10.60
2023-04-18T04:40:42.394Z,13.00
2023-04-18T04:43:12.760Z,10.53
2023-04-18T04:45:42.309Z,9.87
2023-04-18T04:48:09.443Z,11.37
2023-04-18T04:50:37.335Z,10.17
2023-04-18T04:53:06.834Z,11.00
2023-04-18T04:55:33.787Z,8.73
2023-04-18T04:58:00.512Z,11.20
2023-04-18T05:00:27.031Z,11.57
2023-04-18T05:02:55.769Z,10.83
2023-04-18T05:05:22.381Z,9.50
2023-04-18T05:07:48.868Z,9.80
2023-04-18T05:10:15.485Z,9.80
2023-04-18T05:12:42.041Z,10.23
2023-04-18T05:15:08.778Z,8.60
2023-04-18T05:17:35.572Z,9.00
2023-04-18T05:20:02.170Z,9.67
2023-04-18T05:22:28.680Z,13.00
2023-04-18T05:24:55.334Z,9.67
2023-04-18T05:27:21.848Z,13.27
2023-04-18T05:29:50.224Z,7.47
2023-04-18T05:32:16.766Z,8.93
2023-04-18T05:34:43.319Z,11.63
2023-04-18T05:37:10.062Z,9.07
2023-04-18T05:39:36.590Z,9.47
2023-04-18T05:42:03.391Z,7.93
2023-04-18T05:44:30.291Z,14.07
2023-04-18T05:46:56.765Z,10.73
2023-04-18T05:49:23.669Z,8.37
2023-04-18T05:51:50.207Z,8.20
2023-04-18T05:54:17.043Z,8.33
2023-04-18T05:56:43.600Z,12.97
2023-04-18T05:59:10.543Z,10.73
2023-04-18T06:01:37.006Z,9.97
2023-04-18T06:04:03.666Z,8.57
2023-04-18T06:06:31.508Z,8.70
2023-04-18T06:08:58.020Z,9.63
2023-04-18T06:11:24.518Z,9.50
2023-04-18T06:13:51.040Z,9.03
2023-04-18T06:16:17.712Z,9.20
2023-04-18T06:18:44.200Z,8.80
2023-04-18T06:21:10.857Z,11.23
2023-04-18T06:23:38.551Z,10.17
2023-04-18T06:26:07.220Z,8.00
2023-04-18T06:28:33.644Z,9.10
2023-04-18T06:31:00.349Z,9.43
2023-04-18T06:33:26.927Z,11.03
2023-04-18T06:35:53.441Z,11.23
2023-04-18T06:38:19.923Z,10.50
2023-04-18T06:40:46.511Z,11.43
2023-04-18T06:43:12.972Z,10.83
2023-04-18T06:45:39.575Z,12.20
2023-04-18T06:48:06.316Z,10.57
2023-04-18T06:50:32.940Z,13.17
2023-04-18T06:52:59.421Z,12.53
2023-04-18T06:55:25.850Z,10.27
2023-04-18T06:57:52.923Z,11.57
2023-04-18T07:00:19.595Z,11.77
2023-04-18T07:02:46.561Z,12.07
2023-04-18T07:05:13.419Z,10.47
2023-04-18T07:07:39.944Z,11.60
2023-04-18T07:10:08.912Z,15.33
2023-04-18T07:12:35.777Z,9.87
2023-04-18T07:15:03.599Z,14.63
2023-04-18T07:17:30.188Z,12.87
2023-04-18T07:19:56.730Z,11.83
2023-04-18T07:22:23.191Z,10.37
2023-04-18T07:24:49.733Z,12.40
2023-04-18T07:27:16.270Z,10.73
2023-04-18T07:29:42.780Z,12.00
2023-04-18T07:32:09.247Z,12.37
2023-04-18T07:34:36.718Z,11.43
2023-04-18T07:37:03.526Z,11.07
2023-04-18T07:39:31.894Z,12.00
2023-04-18T07:41:58.876Z,13.67
2023-04-18T07:44:25.409Z,14.33
2023-04-18T07:46:52.098Z,11.13
2023-04-18T07:49:18.641Z,11.47
2023-04-18T07:51:45.083Z,11.20
2023-04-18T07:54:11.578Z,13.50
2023-04-18T07:56:38.176Z,12.20
2023-04-18T07:59:04.647Z,11.87
2023-04-18T08:01:31.641Z,12.03
2023-04-18T08:04:01.728Z,12.13
2023-04-18T08:06:28.986Z,12.37
2023-04-18T08:08:55.563Z,11.13
2023-04-18T08:11:22.039Z,14.23
2023-04-18T08:13:48.542Z,11.53
2023-04-18T08:16:17.291Z,13.67
2023-04-18T08:18:44.245Z,14.40
2023-04-18T08:21:10.776Z,12.97
2023-04-18T08:23:37.258Z,10.90
2023-04-18T08:26:03.727Z,12.83
2023-04-18T08:28:30.271Z,11.30
2023-04-18T08:30:56.879Z,11.43
2023-04-18T08:33:24.332Z,10.93
2023-04-18T08:35:51.514Z,10.77
2023-04-18T08:38:18.653Z,11.17
2023-04-18T08:40:45.901Z,11.43
2023-04-18T08:43:16.795Z,10.20
2023-04-18T08:45:44.648Z,10.13
2023-04-18T08:48:13.311Z,10.67
2023-04-18T08:50:40.894Z,12.17
2023-04-18T08:53:07.365Z,9.07
2023-04-18T08:55:34.112Z,11.67
2023-04-18T08:58:01.398Z,10.00
2023-04-18T09:00:29.316Z,11.57
2023-04-18T09:02:57.361Z,10.23
2023-04-18T09:05:25.311Z,12.63
2023-04-18T09:07:53.677Z,9.90
2023-04-18T09:10:33.286Z,10.87
2023-04-18T09:13:03.059Z,9.30
2023-04-18T09:15:29.952Z,11.63
2023-04-18T09:17:58.263Z,9.37
2023-04-18T09:20:35.731Z,9.47
2023-04-18T09:23:04.822Z,8.97
2023-04-18T09:25:34.916Z,11.37
2023-04-18T09:28:02.510Z,8.63
2023-04-18T09:30:34.346Z,9.53
2023-04-18T09:33:01.636Z,7.77
2023-04-18T09:35:28.514Z,9.20
2023-04-18T09:37:55.347Z,8.30
2023-04-18T09:40:21.947Z,9.57
2023-04-18T09:42:48.762Z,9.53
2023-04-18T09:45:15.528Z,8.70
2023-04-18T09:47:42.107Z,10.13
2023-04-18T09:50:10.677Z,7.87
2023-04-18T09:52:38.625Z,9.73
2023-04-18T09:55:09.954Z,10.23
2023-04-18T09:57:38.843Z,13.10
2023-04-18T10:00:21.517Z,8.77
2023-04-18T10:03:00.165Z,8.40
2023-04-18T10:05:28.842Z,8.50
2023-04-18T10:07:55.835Z,8.57
2023-04-18T10:10:22.736Z,9.23
2023-04-18T10:12:50.963Z,14.23
2023-04-18T10:15:18.216Z,7.93
2023-04-18T10:18:02.696Z,8.40
2023-04-18T10:20:32.725Z,8.80
2023-04-18T10:22:59.955Z,8.27
2023-04-18T10:25:38.696Z,8.13
2023-04-18T10:28:06.737Z,8.80
2023-04-18T10:30:42.227Z,8.83
2023-04-18T10:33:30.950Z,10.07
2023-04-18T10:35:59.294Z,8.57
2023-04-18T10:38:26.382Z,7.73
2023-04-18T10:40:52.937Z,8.43
2023-04-18T10:43:19.576Z,7.73
2023-04-18T10:46:23.982Z,7.17
2023-04-18T10:49:17.314Z,8.00
2023-04-18T10:51:45.326Z,7.67
2023-04-18T10:54:17.897Z,6.90
2023-04-18T10:56:54.906Z,7.00
2023-04-18T10:59:23.572Z,6.73
2023-04-18T11:02:03.820Z,7.53
2023-04-18T11:04:30.597Z,7.33
2023-04-18T11:07:00.150Z,6.63
2023-04-18T11:09:26.671Z,5.77
2023-04-18T11:12:03.398Z,5.83
2023-04-18T11:14:40.517Z,5.90
2023-04-18T11:17:23.862Z,26.00
2023-04-18T11:20:01.439Z,8.57
2023-04-18T11:22:28.002Z,11.60
2023-04-18T11:24:59.195Z,6.90
2023-04-18T11:27:28.671Z,6.50
2023-04-18T11:29:55.847Z,6.57
2023-04-18T11:32:23.636Z,6.67
2023-04-18T11:34:54.587Z,8.23
2023-04-18T11:37:21.833Z,9.07
2023-04-18T11:39:48.330Z,7.27
2023-04-18T11:42:14.904Z,7.30
2023-04-18T11:44:45.806Z,8.13
2023-04-18T11:47:22.956Z,7.70
2023-04-18T11:49:58.288Z,8.73
2023-04-18T11:52:27.041Z,7.37
2023-04-18T11:54:53.892Z,7.37
2023-04-18T11:57:30.346Z,8.40
2023-04-18T11:59:58.998Z,7.87
2023-04-18T12:02:40.882Z,7.40
2023-04-18T12:05:08.020Z,7.47
2023-04-18T12:07:34.909Z,6.93
2023-04-18T12:10:01.702Z,7.93
2023-04-18T12:12:28.293Z,9.07
2023-04-18T12:15:08.651Z,10.50
2023-04-18T12:17:36.598Z,8.07
2023-04-18T12:20:04.847Z,8.47
2023-04-18T12:22:44.684Z,7.83
2023-04-18T12:25:27.071Z,7.87
2023-04-18T12:27:58.085Z,6.73
2023-04-18T12:30:29.995Z,7.77
2023-04-18T12:33:01.887Z,8.50
2023-04-18T12:35:29.915Z,7.77
2023-04-18T12:37:57.908Z,7.03
2023-04-18T12:40:26.364Z,7.93
2023-04-18T12:42:54.438Z,9.30
2023-04-18T12:45:21.942Z,7.33
2023-04-18T12:47:50.135Z,7.77
2023-04-18T12:50:20.730Z,7.53
2023-04-18T12:52:47.738Z,7.40
2023-04-18T12:55:14.692Z,8.03
2023-04-18T12:57:42.580Z,7.40
2023-04-18T13:00:13.694Z,6.97
2023-04-18T13:02:41.905Z,7.17
2023-04-18T13:05:13.140Z,6.13
2023-04-18T13:07:40.878Z,5.47
2023-04-18T13:10:09.033Z,6.67
2023-04-18T13:12:36.089Z,5.40
2023-04-18T13:15:03.505Z,5.90
2023-04-18T13:17:29.981Z,6.10
2023-04-18T13:19:56.568Z,6.40
2023-04-18T13:22:23.047Z,6.00
2023-04-18T13:24:49.576Z,5.97
2023-04-18T13:27:16.079Z,6.93
2023-04-18T13:29:43.522Z,5.87
2023-04-18T13:32:10.197Z,6.00
2023-04-18T13:34:39.621Z,7.63
2023-04-18T13:37:06.460Z,9.27
2023-04-18T13:39:33.968Z,5.50
2023-04-18T13:42:02.997Z,5.73
2023-04-18T13:44:33.244Z,5.17
2023-04-18T13:47:00.872Z,5.37
2023-04-18T13:49:27.595Z,5.93
2023-04-18T13:51:57.037Z,5.50
2023-04-18T13:54:26.537Z,5.53
2023-04-18T13:56:54.389Z,7.50
2023-04-18T13:59:21.097Z,6.70
2023-04-18T14:01:49.239Z,6.67
2023-04-18T14:04:16.836Z,5.47
2023-04-18T14:06:44.704Z,6.60
2023-04-18T14:09:11.296Z,6.27
2023-04-18T14:11:37.860Z,5.70
2023-04-18T14:14:04.373Z,5.70
2023-04-18T14:16:32.574Z,4.97
2023-04-18T14:19:00.127Z,5.40
2023-04-18T14:21:27.003Z,5.33
2023-04-18T14:23:53.957Z,5.27
2023-04-18T14:26:20.895Z,5.03
2023-04-18T14:28:47.697Z,4.67
2023-04-18T14:31:15.221Z,4.37
2023-04-18T14:33:42.342Z,4.77
2023-04-18T14:36:09.758Z,5.57
2023-04-18T14:38:36.351Z,5.30
2023-04-18T14:41:06.077Z,5.27
2023-04-18T14:43:32.634Z,5.03
2023-04-18T14:45:59.850Z,4.77
2023-04-18T14:48:27.271Z,6.23
2023-04-18T14:50:58.103Z,3.80
2023-04-18T14:53:25.097Z,8.83
2023-04-18T14:55:51.841Z,3.67
2023-04-18T14:58:18.320Z,3.87
2023-04-18T15:00:44.812Z,4.07
2023-04-18T15:03:11.622Z,3.50
2023-04-18T15:05:44.974Z,4.17
2023-04-18T15:08:11.618Z,7.53
2023-04-18T15:10:38.705Z,4.00
2023-04-18T15:13:05.209Z,3.83
2023-04-18T15:15:34.945Z,3.33
2023-04-18T15:18:02.656Z,2.60
2023-04-18T15:20:29.651Z,2.33
2023-04-18T15:22:57.009Z,3.07
2023-04-18T15:25:23.603Z,2.80
2023-04-18T15:27:50.194Z,3.20
2023-04-18T15:30:16.654Z,3.57
2023-04-18T15:32:44.169Z,3.53
2023-04-18T15:35:11.880Z,3.87
2023-04-18T15:37:38.360Z,2.70
2023-04-18T15:40:09.301Z,2.73
2023-04-18T15:42:35.878Z,3.30
2023-04-18T15:45:03.991Z,3.10
2023-04-18T15:47:31.268Z,3.30
2023-04-18T15:49:57.983Z,2.47
2023-04-18T15:52:24.599Z,3.07
2023-04-18T15:54:51.886Z,4.43
2023-04-18T15:57:18.373Z,4.03
2023-04-18T15:59:44.843Z,3.43
2023-04-18T16:02:11.419Z,3.17
2023-04-18T16:04:37.951Z,3.20
2023-04-18T16:07:04.969Z,4.40
2023-04-18T16:09:31.847Z,3.73
2023-04-18T16:11:58.342Z,3.83
2023-04-18T16:14:24.821Z,3.00
2023-04-18T16:16:52.734Z,3.40
2023-04-18T16:19:19.619Z,3.70
2023-04-18T16:21:47.107Z,5.00
2023-04-18T16:24:15.418Z,3.37
2023-04-18T16:26:42.177Z,3.80
2023-04-18T16:29:08.726Z,4.53
2023-04-18T16:31:35.284Z,4.13
2023-04-18T16:34:03.206Z,3.70
2023-04-18T16:36:29.706Z,4.30
2023-04-18T16:38:56.224Z,4.10
2023-04-18T16:41:22.694Z,4.33
2023-04-18T16:43:49.126Z,4.17
2023-04-18T16:46:15.756Z,3.40
2023-04-18T16:48:42.311Z,3.50
2023-04-18T16:51:08.789Z,3.33
2023-04-18T16:53:36.078Z,3.63
2023-04-18T16:56:03.259Z,4.67
2023-04-18T16:58:30.306Z,3.77
2023-04-18T17:00:56.843Z,5.30
2023-04-18T17:03:23.582Z,3.93
2023-04-18T17:05:50.187Z,5.03
2023-04-18T17:08:16.706Z,4.67
2023-04-18T17:10:43.163Z,4.40
2023-04-18T17:13:09.618Z,5.73
2023-04-18T17:15:36.545Z,5.97
2023-04-18T17:18:03.755Z,4.87
2023-04-18T17:20:30.224Z,7.37
2023-04-18T17:22:57.356Z,7.43
2023-04-18T17:25:24.434Z,6.30
2023-04-18T17:27:51.096Z,5.00
2023-04-18T17:30:17.739Z,5.83
2023-04-18T17:32:46.262Z,4.80
2023-04-18T17:35:14.562Z,5.30
2023-04-18T17:37:42.488Z,6.13
2023-04-18T17:40:10.305Z,9.13
2023-04-18T17:42:37.882Z,7.67
2023-04-18T17:45:10.047Z,6.10
2023-04-18T17:47:39.561Z,6.13
2023-04-18T17:50:07.544Z,5.70
2023-04-18T17:52:34.928Z,7.23
2023-04-18T17:55:02.577Z,7.10
2023-04-18T17:57:30.569Z,6.60
2023-04-18T17:59:57.111Z,6.63
2023-04-18T18:02:23.735Z,7.47
2023-04-18T18:04:51.441Z,6.10
2023-04-18T18:07:18.430Z,8.47
2023-04-18T18:09:45.565Z,5.90
2023-04-18T18:12:12.289Z,7.17
2023-04-18T18:14:40.517Z,6.03
2023-04-18T18:17:07.132Z,5.97
2023-04-18T18:19:36.138Z,6.33
2023-04-18T18:22:02.727Z,6.50
2023-04-18T18:24:29.327Z,6.10
2023-04-18T18:26:56.925Z,6.50
2023-04-18T18:29:23.671Z,9.23
2023-04-18T18:31:51.747Z,6.67
2023-04-18T18:34:20.210Z,6.30
2023-04-18T18:36:48.909Z,6.73
2023-04-18T18:39:17.609Z,6.70
2023-04-18T18:41:44.153Z,6.27
2023-04-18T18:44:11.579Z,7.80
2023-04-18T18:46:38.757Z,7.50
2023-04-18T18:49:09.343Z,5.97
2023-04-18T18:51:38.650Z,5.50
2023-04-18T18:54:08.241Z,6.87
2023-04-18T18:56:35.759Z,7.57
2023-04-18T18:59:06.097Z,5.70
2023-04-18T19:01:35.361Z,7.17
2023-04-18T19:04:06.027Z,8.50
2023-04-18T19:06:32.864Z,11.23
2023-04-18T19:08:59.848Z,7.07
2023-04-18T19:11:26.946Z,7.80
2023-04-18T19:13:54.322Z,5.50
2023-04-18T19:16:20.861Z,5.93
2023-04-18T19:18:49.227Z,4.83
2023-04-18T19:21:16.439Z,4.23
2023-04-18T19:23:43.114Z,5.10
2023-04-18T19:26:10.074Z,6.33
2023-04-18T19:28:36.933Z,5.23
2023-04-18T19:31:03.576Z,9.10
2023-04-18T19:33:30.543Z,5.77
2023-04-18T19:35:57.090Z,5.07
2023-04-18T19:38:23.589Z,7.20
2023-04-18T19:40:51.349Z,5.97
2023-04-18T19:43:18.599Z,5.13
2023-04-18T19:45:46.015Z,4.67
2023-04-18T19:48:13.191Z,6.43
2023-04-18T19:50:41.051Z,5.00
2023-04-18T19:53:08.370Z,6.00
2023-04-18T19:55:35.207Z,4.00
2023-04-18T19:58:01.941Z,4.33
2023-04-18T20:00:29.359Z,5.57
2023-04-18T20:02:58.685Z,4.27
2023-04-18T20:05:25.684Z,4.47
2023-04-18T20:07:52.675Z,6.73
2023-04-18T20:10:21.173Z,6.90
2023-04-18T20:12:49.860Z,8.27
2023-04-18T20:15:16.999Z,6.90
2023-04-18T20:17:43.561Z,5.17
2023-04-18T20:20:11.374Z,4.03
2023-04-18T20:22:40.346Z,6.77
2023-04-18T20:25:07.614Z,5.73
2023-04-18T20:27:34.147Z,5.47
2023-04-18T20:30:00.653Z,6.63
2023-04-18T20:32:27.258Z,6.40
2023-04-18T20:34:53.980Z,6.07
2023-04-18T20:37:20.846Z,5.07
2023-04-18T20:39:47.566Z,6.77
2023-04-18T20:42:14.356Z,5.57
2023-04-18T20:44:43.218Z,4.97
2023-04-18T20:47:09.757Z,5.80
2023-04-18T20:49:36.355Z,3.80
2023-04-18T20:52:02.896Z,9.43
2023-04-18T20:54:29.443Z,4.03
2023-04-18T20:56:56.178Z,4.27
2023-04-18T20:59:22.699Z,4.77
2023-04-18T21:01:49.288Z,4.77
2023-04-18T21:04:16.494Z,3.93
2023-04-18T21:06:43.202Z,4.47
2023-04-18T21:09:09.668Z,4.83
2023-04-18T21:11:36.159Z,4.17
2023-04-18T21:14:05.686Z,5.20
2023-04-18T21:16:32.447Z,9.33
2023-04-18T21:18:59.076Z,4.50
2023-04-18T21:21:25.712Z,5.30
2023-04-18T21:23:52.167Z,5.30
2023-04-18T21:26:18.923Z,3.73
2023-04-18T21:29:11.681Z,5.70
2023-04-18T21:31:38.276Z,4.80
2023-04-18T21:34:05.686Z,4.63
2023-04-18T21:36:32.484Z,6.13
2023-04-18T21:39:01.053Z,6.60
2023-04-18T21:41:27.936Z,5.30
2023-04-18T21:43:54.497Z,5.03
2023-04-18T21:46:21.128Z,3.80
2023-04-18T21:48:48.001Z,4.77
2023-04-18T21:51:15.981Z,4.17
2023-04-18T21:53:42.580Z,6.17
2023-04-18T21:56:09.398Z,5.13
2023-04-18T21:58:36.590Z,5.77
2023-04-18T22:01:03.875Z,5.87
2023-04-18T22:03:31.697Z,4.07
2023-04-18T22:05:58.904Z,4.73
2023-04-18T22:08:25.861Z,5.23
2023-04-18T22:10:59.208Z,4.77
2023-04-18T22:13:30.248Z,4.00
2023-04-18T22:16:03.627Z,4.80
2023-04-18T22:18:33.904Z,4.40
2023-04-18T22:21:02.494Z,5.50
2023-04-18T22:23:30.245Z,5.47
2023-04-18T22:25:56.907Z,4.93
2023-04-18T22:28:24.003Z,5.33
2023-04-18T22:30:51.480Z,7.13
2023-04-18T22:33:18.526Z,5.50
2023-04-18T22:35:47.889Z,5.17
2023-04-18T22:38:18.778Z,5.63
2023-04-18T22:40:45.283Z,5.67
2023-04-18T22:43:11.822Z,5.73
2023-04-18T22:45:38.728Z,5.30
2023-04-18T22:48:05.646Z,6.40
2023-04-18T22:50:32.172Z,4.63
2023-04-18T22:52:58.628Z,6.93
2023-04-18T22:55:25.196Z,6.00
2023-04-18T22:57:51.687Z,5.20
2023-04-18T23:00:18.317Z,5.90
2023-04-18T23:02:45.010Z,6.00
2023-04-18T23:05:11.714Z,7.03
2023-04-18T23:07:38.213Z,7.30
2023-04-18T23:10:06.373Z,7.37
2023-04-18T23:12:32.910Z,5.90
2023-04-18T23:14:59.377Z,4.80
2023-04-18T23:17:25.948Z,6.43
2023-04-18T23:19:52.705Z,8.77
2023-04-18T23:22:19.483Z,4.47
2023-04-18T23:24:46.066Z,6.13
2023-04-18T23:27:12.595Z,5.97
2023-04-18T23:29:39.247Z,6.40
2023-04-18T23:32:06.327Z,5.27
2023-04-18T23:34:32.848Z,5.20
2023-04-18T23:37:00.437Z,6.70
2023-04-18T23:39:27.016Z,8.37
2023-04-18T23:41:53.476Z,7.27
2023-04-18T23:44:20.185Z,5.50
2023-04-18T23:46:47.327Z,4.30
2023-04-18T23:49:14.348Z,6.53
2023-04-18T23:51:40.820Z,5.33
2023-04-18T23:54:07.652Z,5.13
2023-04-18T23:56:34.526Z,6.07
2023-04-18T23:59:01.017Z,4.93
